Maha Roos — AVFT — position and weather

sailwx.info

Track history (hours):
 
Tides and Currents Weather Stations Pressure Air Temp Water Temp Dewpoint Dewpoint Depression Visibility Wind Speed Wind Dir Waves Ship Positions

Maha Roos

Last reported at 2018-Apr-25 06:23 UTC. Time now 2018-Apr-25 06:54 UTC.
Position N 43°44' W 007°24'.

Length 225 m; draft 12.4 m.

Type: Cargo ship. MMSI: 419000124.

Date/timePositionNaut miles runAvg speedWind from/ knotsBaromVisibWave heightAir tempDewpointWater temp
2018-Apr-25 06:23N 43°44' W 007°24'0 0.0
2018-Apr-25 01:56N 43°44' W 007°24'0 0.0
2018-Apr-24 19:53N 43°44' W 007°24'0 0.0
2018-Apr-24 16:29N 43°44' W 007°24'0 0.1
2018-Apr-24 15:59N 43°44' W 007°24'0 0.0
2018-Apr-24 10:05N 43°44' W 007°24'0 0.0
2018-Apr-24 09:50N 43°44' W 007°24'0 0.0
2018-Apr-24 09:20N 43°44' W 007°24'0 0.0
2018-Apr-24 07:11N 43°44' W 007°24'0 0.0
2018-Apr-23 20:56N 43°44' W 007°24'0 0.0
2018-Apr-23 20:29N 43°44' W 007°24'0 0.0
2018-Apr-23 19:56N 43°44' W 007°24'0 0.0
2018-Apr-23 19:26N 43°44' W 007°24'0 0.0
2018-Apr-23 18:17N 43°44' W 007°24'0 0.0
2018-Apr-23 17:56N 43°44' W 007°24'0 0.1
2018-Apr-23 17:26N 43°44' W 007°24'0 0.0
2018-Apr-23 16:23N 43°44' W 007°24'0 0.0
2018-Apr-23 13:44N 43°44' W 007°24'0 0.0
2018-Apr-23 13:14N 43°44' W 007°24'0 0.0
2018-Apr-23 07:59N 43°44' W 007°24'  
2018-Apr-20 04:41N 43°44' W 007°24'0 0.0
2018-Apr-20 02:08N 43°44' W 007°24'0 0.0
2018-Apr-20 01:50N 43°44' W 007°24'0 0.0
2018-Apr-20 01:14N 43°44' W 007°24'0 0.0
2018-Apr-19 20:32N 43°44' W 007°24'0 0.0
2018-Apr-19 20:11N 43°44' W 007°24'0 0.0
2018-Apr-19 19:05N 43°44' W 007°24'0 0.0
2018-Apr-19 18:41N 43°44' W 007°24'0 0.0
2018-Apr-19 18:26N 43°44' W 007°24'0 0.0
2018-Apr-19 16:20N 43°44' W 007°24'0 0.0
2018-Apr-19 12:56N 43°44' W 007°24'0 0.0
2018-Apr-19 12:20N 43°44' W 007°24'0 0.0
2018-Apr-19 11:56N 43°44' W 007°24'0 0.0
2018-Apr-19 11:08N 43°44' W 007°24'0 0.1
2018-Apr-19 10:56N 43°44' W 007°24'0 0.0
2018-Apr-19 10:29N 43°44' W 007°24'0 0.0
2018-Apr-19 07:02N 43°44' W 007°24'0 0.0
2018-Apr-19 06:50N 43°44' W 007°24'0 0.0
2018-Apr-19 06:20N 43°44' W 007°24'0 0.0
2018-Apr-19 05:50N 43°44' W 007°24'0 0.0
2018-Apr-19 04:50N 43°44' W 007°24'0 0.0
2018-Apr-19 03:32N 43°44' W 007°24'0 0.0
2018-Apr-19 00:44N 43°44' W 007°24'0 0.0
2018-Apr-18 22:53N 43°44' W 007°24'0 0.0
2018-Apr-18 17:32N 43°44' W 007°24'0 0.0
2018-Apr-18 17:08N 43°44' W 007°24'0 0.1
2018-Apr-18 16:44N 43°44' W 007°24'0 0.1
2018-Apr-18 16:26N 43°44' W 007°24'0 0.0
2018-Apr-18 11:35N 43°44' W 007°24'0 0.0
2018-Apr-18 11:26N 43°44' W 007°24'0 0.0
2018-Apr-18 09:53N 43°44' W 007°24'0 0.0
2018-Apr-18 07:59N 43°44' W 007°24'0 0.0
2018-Apr-18 07:26N 43°44' W 007°24'0 0.0
2018-Apr-18 00:59N 43°44' W 007°24'1 1.2
2018-Apr-18 00:29N 43°44' W 007°24'1 1.6
2018-Apr-18 00:00N 43°45' W 007°23'2 4.0
2018-Apr-17 23:29N 43°46' W 007°26'3 5.9
2018-Apr-17 23:00N 43°48' W 007°28'4 7.5
2018-Apr-17 22:30N 43°51' W 007°32'2 4.9
2018-Apr-17 22:00N 43°53' W 007°34'4 8.1
2018-Apr-17 21:30N 43°55' W 007°39'510.7
2018-Apr-17 21:00N 43°58' W 007°46'510.6
2018-Apr-17 20:29N 43°58' W 007°53'  
Track history (hours):
 
Tides and Currents Weather Stations Pressure Air Temp Water Temp Dewpoint Dewpoint Depression Visibility Wind Speed Wind Dir Waves Ship Positions

Maha Roos

Last reported at 2018-Apr-25 06:23 UTC. Time now 2018-Apr-25 06:54 UTC.
Position N 43°44' W 007°24'.

Length 225 m; draft 12.4 m.

Type: Cargo ship. MMSI: 419000124.

Date/timePositionNaut miles runAvg speedWind from/ knotsBaromVisibWave heightAir tempDewpointWater temp
2018-Apr-25 06:23N 43°44' W 007°24'0 0.0
2018-Apr-25 01:56N 43°44' W 007°24'0 0.0
2018-Apr-24 19:53N 43°44' W 007°24'0 0.0
2018-Apr-24 16:29N 43°44' W 007°24'0 0.1
2018-Apr-24 15:59N 43°44' W 007°24'0 0.0
2018-Apr-24 10:05N 43°44' W 007°24'0 0.0
2018-Apr-24 09:50N 43°44' W 007°24'0 0.0
2018-Apr-24 09:20N 43°44' W 007°24'0 0.0
2018-Apr-24 07:11N 43°44' W 007°24'0 0.0
2018-Apr-23 20:56N 43°44' W 007°24'0 0.0
2018-Apr-23 20:29N 43°44' W 007°24'0 0.0
2018-Apr-23 19:56N 43°44' W 007°24'0 0.0
2018-Apr-23 19:26N 43°44' W 007°24'0 0.0
2018-Apr-23 18:17N 43°44' W 007°24'0 0.0
2018-Apr-23 17:56N 43°44' W 007°24'0 0.1
2018-Apr-23 17:26N 43°44' W 007°24'0 0.0
2018-Apr-23 16:23N 43°44' W 007°24'0 0.0
2018-Apr-23 13:44N 43°44' W 007°24'0 0.0
2018-Apr-23 13:14N 43°44' W 007°24'0 0.0
2018-Apr-23 07:59N 43°44' W 007°24'  
2018-Apr-20 04:41N 43°44' W 007°24'0 0.0
2018-Apr-20 02:08N 43°44' W 007°24'0 0.0
2018-Apr-20 01:50N 43°44' W 007°24'0 0.0
2018-Apr-20 01:14N 43°44' W 007°24'0 0.0
2018-Apr-19 20:32N 43°44' W 007°24'0 0.0
2018-Apr-19 20:11N 43°44' W 007°24'0 0.0
2018-Apr-19 19:05N 43°44' W 007°24'0 0.0
2018-Apr-19 18:41N 43°44' W 007°24'0 0.0
2018-Apr-19 18:26N 43°44' W 007°24'0 0.0
2018-Apr-19 16:20N 43°44' W 007°24'0 0.0
2018-Apr-19 12:56N 43°44' W 007°24'0 0.0
2018-Apr-19 12:20N 43°44' W 007°24'0 0.0
2018-Apr-19 11:56N 43°44' W 007°24'0 0.0
2018-Apr-19 11:08N 43°44' W 007°24'0 0.1
2018-Apr-19 10:56N 43°44' W 007°24'0 0.0
2018-Apr-19 10:29N 43°44' W 007°24'0 0.0
2018-Apr-19 07:02N 43°44' W 007°24'0 0.0
2018-Apr-19 06:50N 43°44' W 007°24'0 0.0
2018-Apr-19 06:20N 43°44' W 007°24'0 0.0
2018-Apr-19 05:50N 43°44' W 007°24'0 0.0
2018-Apr-19 04:50N 43°44' W 007°24'0 0.0
2018-Apr-19 03:32N 43°44' W 007°24'0 0.0
2018-Apr-19 00:44N 43°44' W 007°24'0 0.0
2018-Apr-18 22:53N 43°44' W 007°24'0 0.0
2018-Apr-18 17:32N 43°44' W 007°24'0 0.0
2018-Apr-18 17:08N 43°44' W 007°24'0 0.1
2018-Apr-18 16:44N 43°44' W 007°24'0 0.1
2018-Apr-18 16:26N 43°44' W 007°24'0 0.0
2018-Apr-18 11:35N 43°44' W 007°24'0 0.0
2018-Apr-18 11:26N 43°44' W 007°24'0 0.0
2018-Apr-18 09:53N 43°44' W 007°24'0 0.0
2018-Apr-18 07:59N 43°44' W 007°24'0 0.0
2018-Apr-18 07:26N 43°44' W 007°24'0 0.0
2018-Apr-18 00:59N 43°44' W 007°24'1 1.2
2018-Apr-18 00:29N 43°44' W 007°24'1 1.6
2018-Apr-18 00:00N 43°45' W 007°23'2 4.0
2018-Apr-17 23:29N 43°46' W 007°26'3 5.9
2018-Apr-17 23:00N 43°48' W 007°28'4 7.5
2018-Apr-17 22:30N 43°51' W 007°32'2 4.9
2018-Apr-17 22:00N 43°53' W 007°34'4 8.1
2018-Apr-17 21:30N 43°55' W 007°39'510.7
2018-Apr-17 21:00N 43°58' W 007°46'510.6
2018-Apr-17 20:29N 43°58' W 007°53'  

Dump ship's entire track history